Time;durP1;ratioP1;P1;durP2;ratioP2;P2;SDS_P1;SDS_P2;PMS_P1;PMS_P2;Temp;Humidity;BMP_temperature;BMP_pressure;BME280_temperature;BME280_humidity;BME280_pressure;Samples;Min_cycle;Max_cycle;Signal;HPM_P1;HPM_P2
2022/06/07 00:02:53;;;;;;;1.60;1.50;;;14.80;99.90;;;;;;4973910;28;20461;-75
2022/06/07 00:05:45;;;;;;;1.73;1.63;;;14.80;99.90;;;;;;4970209;28;20548;-75
2022/06/07 00:08:33;;;;;;;1.70;1.60;;;14.70;99.90;;;;;;4967681;28;20501;-75
2022/06/07 00:11:23;;;;;;;1.83;1.73;;;14.70;99.90;;;;;;4965966;28;20503;-75
2022/06/07 00:14:18;;;;;;;1.87;1.77;;;14.70;99.90;;;;;;4967922;28;20486;-75
2022/06/07 00:17:08;;;;;;;2.33;2.23;;;14.80;99.90;;;;;;4966285;28;20593;-75
2022/06/07 00:20:01;;;;;;;2.17;2.03;;;14.70;99.90;;;;;;4966381;28;20461;-76
2022/06/07 00:22:50;;;;;;;2.00;1.90;;;14.70;99.90;;;;;;4969427;28;20501;-75
2022/06/07 00:25:40;;;;;;;2.10;2.00;;;14.60;99.90;;;;;;4972538;28;20485;-75
2022/06/07 00:28:31;;;;;;;2.30;2.10;;;14.50;99.90;;;;;;4971603;28;22469;-75
2022/06/07 00:31:31;;;;;;;2.07;1.90;;;14.60;99.90;;;;;;4967347;28;20482;-76
2022/06/07 00:34:24;;;;;;;2.10;2.00;;;14.60;99.90;;;;;;4969871;28;20468;-75
2022/06/07 00:37:14;;;;;;;2.27;2.17;;;14.50;99.90;;;;;;4967931;28;20469;-75
2022/06/07 00:40:06;;;;;;;2.10;2.00;;;14.50;99.90;;;;;;4970564;28;20467;-75
2022/06/07 00:43:00;;;;;;;2.30;2.20;;;14.60;99.90;;;;;;4962696;28;20466;-75
2022/06/07 00:45:48;;;;;;;2.80;2.60;;;14.50;99.90;;;;;;4965796;28;20656;-75
2022/06/07 00:48:39;;;;;;;2.27;2.17;;;14.50;99.90;;;;;;4968498;28;20488;-75
2022/06/07 00:51:27;;;;;;;2.60;2.40;;;14.50;99.90;;;;;;4961680;28;20462;-75
2022/06/07 00:54:19;;;;;;;3.90;2.60;;;14.50;99.90;;;;;;4965892;28;21020;-75
2022/06/07 00:57:13;;;;;;;2.77;2.53;;;14.50;99.90;;;;;;4964966;28;20597;-75
2022/06/07 01:00:05;;;;;;;2.77;2.57;;;14.50;99.90;;;;;;4966525;28;20470;-75
2022/06/07 01:02:56;;;;;;;2.60;2.40;;;14.40;99.90;;;;;;4969424;28;20553;-75
2022/06/07 01:05:45;;;;;;;2.93;2.73;;;14.40;99.90;;;;;;4966980;28;22246;-75
2022/06/07 01:11:54;;;;;;;3.10;2.90;;;14.40;99.90;;;;;;4893115;29;20860;-75
2022/06/07 01:14:44;;;;;;;3.90;2.53;;;14.40;99.90;;;;;;4892141;29;20575;-75
2022/06/07 01:17:33;;;;;;;3.20;2.90;;;14.50;99.90;;;;;;4947466;28;20484;-75
2022/06/07 01:20:23;;;;;;;3.33;3.03;;;14.50;99.90;;;;;;4970331;28;21228;-75
2022/06/07 01:23:15;;;;;;;3.20;2.90;;;14.50;99.90;;;;;;4969211;28;20544;-75
2022/06/07 01:26:04;;;;;;;3.03;2.83;;;14.40;99.90;;;;;;4961540;28;20505;-75
2022/06/07 01:28:52;;;;;;;2.80;2.60;;;14.40;99.90;;;;;;4968744;28;20488;-74
2022/06/07 01:31:44;;;;;;;2.67;2.47;;;14.40;99.90;;;;;;4968156;28;20935;-75
2022/06/07 01:34:33;;;;;;;3.20;2.60;;;14.40;99.90;;;;;;4974904;28;20568;-75
2022/06/07 01:37:24;;;;;;;3.50;3.00;;;14.40;99.90;;;;;;4976045;28;21063;-75
2022/06/07 01:43:36;;;;;;;3.20;2.90;;;14.30;99.90;;;;;;4972004;28;20473;-75
2022/06/07 01:46:25;;;;;;;2.70;2.50;;;14.30;99.90;;;;;;4969232;28;20476;-75
2022/06/07 01:49:13;;;;;;;3.00;2.80;;;14.30;99.90;;;;;;4974977;28;20977;-75
2022/06/07 01:52:02;;;;;;;2.60;2.50;;;14.30;99.90;;;;;;4983171;28;20513;-74
2022/06/07 01:54:56;;;;;;;2.50;2.40;;;14.30;99.90;;;;;;4970611;28;20530;-75
2022/06/07 01:57:48;;;;;;;3.50;3.20;;;14.30;99.90;;;;;;4965727;28;20478;-75
2022/06/07 02:00:36;;;;;;;2.60;2.40;;;14.30;99.90;;;;;;4967194;28;20619;-75
2022/06/07 02:03:24;;;;;;;2.70;2.50;;;14.30;99.90;;;;;;4969353;28;20476;-75
2022/06/07 02:06:14;;;;;;;2.87;2.67;;;14.30;99.90;;;;;;4969286;28;20449;-74
2022/06/07 02:09:06;;;;;;;2.73;2.57;;;14.30;99.90;;;;;;4962190;28;20612;-75
2022/06/07 02:11:54;;;;;;;2.70;2.50;;;14.30;99.90;;;;;;4967348;28;20457;-75
2022/06/07 02:14:46;;;;;;;2.30;2.20;;;14.30;99.90;;;;;;4967669;28;20470;-75
2022/06/07 02:17:38;;;;;;;2.40;2.20;;;14.30;99.90;;;;;;4974884;28;20510;-75
2022/06/07 02:20:26;;;;;;;2.47;2.27;;;14.30;99.90;;;;;;4959987;28;20511;-76
2022/06/07 02:23:15;;;;;;;2.30;2.10;;;14.20;99.90;;;;;;4969929;28;20478;-75
2022/06/07 02:26:07;;;;;;;2.33;2.00;;;14.30;99.90;;;;;;4965298;28;21397;-75
2022/06/07 02:28:59;;;;;;;2.30;2.20;;;14.20;99.90;;;;;;4968419;28;20623;-76
2022/06/07 02:31:54;;;;;;;2.10;2.00;;;14.30;99.90;;;;;;4970372;28;20551;-75
2022/06/07 02:34:47;;;;;;;2.43;2.23;;;14.30;99.90;;;;;;4965423;28;20474;-75
2022/06/07 02:37:40;;;;;;;2.10;2.00;;;14.30;99.90;;;;;;4967226;28;20482;-75
2022/06/07 02:40:28;;;;;;;2.60;2.40;;;14.30;99.90;;;;;;4973679;28;20855;-75
2022/06/07 02:43:17;;;;;;;2.37;2.17;;;14.30;99.90;;;;;;4960485;28;20490;-75
2022/06/07 02:46:07;;;;;;;2.70;2.50;;;14.20;99.90;;;;;;4971390;28;20509;-75
2022/06/07 02:48:58;;;;;;;2.33;2.13;;;14.20;99.90;;;;;;4975224;28;20513;-75
2022/06/07 02:51:48;;;;;;;2.20;2.10;;;14.20;99.90;;;;;;4978686;28;20560;-75
2022/06/07 02:54:57;;;;;;;2.33;2.23;;;14.20;99.90;;;;;;4972402;28;20525;-78
2022/06/07 02:57:45;;;;;;;2.07;1.97;;;14.20;99.90;;;;;;4975981;28;20467;-78
2022/06/07 03:00:38;;;;;;;2.20;2.00;;;14.20;99.90;;;;;;4974622;28;20997;-75
2022/06/07 03:03:27;;;;;;;2.50;2.30;;;14.20;99.90;;;;;;4981449;28;20477;-75
2022/06/07 03:06:20;;;;;;;2.13;2.03;;;14.20;99.90;;;;;;4982650;28;20463;-75
2022/06/07 03:09:11;;;;;;;2.13;2.03;;;14.20;99.90;;;;;;4972008;28;20842;-76
2022/06/07 03:12:03;;;;;;;2.00;1.90;;;14.20;99.90;;;;;;4974589;28;20466;-76
2022/06/07 03:14:51;;;;;;;2.20;2.10;;;14.20;99.90;;;;;;4971957;28;20525;-75
2022/06/07 03:17:41;;;;;;;2.60;1.70;;;14.20;99.90;;;;;;4974768;28;20482;-75
2022/06/07 03:20:31;;;;;;;1.97;1.87;;;14.10;99.90;;;;;;4973367;28;20454;-75
2022/06/07 03:23:21;;;;;;;1.83;1.73;;;14.20;99.90;;;;;;4973530;28;20561;-75
2022/06/07 03:26:13;;;;;;;1.93;1.83;;;14.10;99.90;;;;;;4969501;28;20821;-75
2022/06/07 03:29:02;;;;;;;1.77;1.67;;;14.10;99.90;;;;;;4967455;28;20580;-75
2022/06/07 03:31:52;;;;;;;2.23;2.03;;;14.10;99.90;;;;;;4971213;28;20609;-75
2022/06/07 03:34:40;;;;;;;1.90;1.80;;;14.00;99.90;;;;;;4969904;28;21067;-75
2022/06/07 03:37:34;;;;;;;2.00;1.80;;;14.00;99.90;;;;;;4968141;28;20559;-75
2022/06/07 03:40:45;;;;;;;1.70;1.60;;;14.00;99.90;;;;;;4972502;28;20532;-75
2022/06/07 03:43:33;;;;;;;1.60;1.50;;;14.00;99.90;;;;;;4968829;28;20485;-75
2022/06/07 03:46:26;;;;;;;2.00;1.70;;;14.00;99.90;;;;;;4972527;28;20489;-74
2022/06/07 03:49:15;;;;;;;1.83;1.73;;;14.00;99.90;;;;;;4971073;28;20497;-75
2022/06/07 03:52:04;;;;;;;1.50;1.40;;;14.00;99.90;;;;;;4968282;28;20500;-75
2022/06/07 03:54:52;;;;;;;1.47;1.37;;;14.10;99.90;;;;;;4968503;28;21082;-75
2022/06/07 03:57:46;;;;;;;1.70;1.60;;;14.10;99.90;;;;;;4971921;28;21018;-75
2022/06/07 04:00:35;;;;;;;3.20;1.90;;;14.10;99.90;;;;;;4968815;28;21029;-76
2022/06/07 04:03:25;;;;;;;1.87;1.73;;;14.10;99.90;;;;;;4964432;28;20491;-75
2022/06/07 04:06:19;;;;;;;1.83;1.73;;;14.10;99.90;;;;;;4965705;28;20474;-75
2022/06/07 04:09:10;;;;;;;1.73;1.63;;;14.10;99.90;;;;;;4962186;28;20584;-76
2022/06/07 04:11:58;;;;;;;2.20;2.10;;;14.10;99.90;;;;;;4962077;28;20631;-77
2022/06/07 04:14:48;;;;;;;2.30;2.10;;;14.10;99.90;;;;;;4975038;28;20482;-77
2022/06/07 04:17:59;;;;;;;1.77;1.67;;;14.10;99.90;;;;;;4971833;28;20610;-76
2022/06/07 04:20:47;;;;;;;1.70;1.60;;;14.20;99.90;;;;;;4970425;28;20547;-77
2022/06/07 04:23:38;;;;;;;1.83;1.73;;;14.20;99.90;;;;;;4971167;28;20556;-75
2022/06/07 04:26:28;;;;;;;1.83;1.73;;;14.20;99.90;;;;;;4973499;28;20469;-75
2022/06/07 04:29:16;;;;;;;2.20;2.10;;;14.20;99.90;;;;;;4970840;28;20571;-74
2022/06/07 04:32:11;;;;;;;2.17;1.97;;;14.20;99.90;;;;;;4975148;28;20470;-73
2022/06/07 04:35:00;;;;;;;2.80;2.43;;;14.20;99.90;;;;;;4986720;28;20493;-74
2022/06/07 04:37:50;;;;;;;2.53;2.20;;;14.20;99.90;;;;;;4970196;28;20676;-75
2022/06/07 04:40:40;;;;;;;2.37;2.20;;;14.20;99.90;;;;;;4957616;28;20656;-75
2022/06/07 04:43:32;;;;;;;2.47;2.20;;;14.20;99.90;;;;;;4967388;28;20628;-74
2022/06/07 04:46:25;;;;;;;2.67;2.47;;;14.20;99.90;;;;;;4963504;28;21004;-75
2022/06/07 04:49:17;;;;;;;2.87;2.67;;;14.20;99.90;;;;;;4965387;28;20553;-76
2022/06/07 04:52:11;;;;;;;2.60;2.40;;;14.20;99.90;;;;;;4963362;28;20462;-76
2022/06/07 04:55:10;;;;;;;2.97;2.77;;;14.20;99.90;;;;;;4955755;28;20482;-76
2022/06/07 04:57:59;;;;;;;2.90;2.70;;;14.20;99.90;;;;;;4964773;28;20510;-75
2022/06/07 05:00:47;;;;;;;3.20;2.90;;;14.20;99.90;;;;;;4956469;28;20465;-75
2022/06/07 05:03:39;;;;;;;2.97;2.77;;;14.20;99.90;;;;;;4963246;28;20513;-75
2022/06/07 05:06:33;;;;;;;3.87;3.33;;;14.20;99.90;;;;;;4972046;28;20866;-75
2022/06/07 05:09:36;;;;;;;3.10;2.90;;;14.20;99.90;;;;;;4968288;28;20484;-74
2022/06/07 05:12:32;;;;;;;3.50;3.20;;;14.20;99.90;;;;;;4959120;28;20545;-74
2022/06/07 05:15:20;;;;;;;3.60;3.30;;;14.20;99.90;;;;;;4964395;28;20992;-77
2022/06/07 05:18:09;;;;;;;3.17;2.97;;;14.30;99.90;;;;;;4975484;28;20506;-74
2022/06/07 05:20:57;;;;;;;3.17;2.87;;;14.30;99.90;;;;;;4966689;28;20621;-74
2022/06/07 05:23:53;;;;;;;4.47;3.60;;;14.30;99.90;;;;;;4954026;28;21076;-77
2022/06/07 05:26:45;;;;;;;3.77;3.50;;;14.40;99.90;;;;;;4970587;28;20494;-76
2022/06/07 05:29:44;;;;;;;4.40;4.10;;;14.40;99.90;;;;;;4971116;28;21137;-76
2022/06/07 05:32:42;;;;;;;4.00;3.70;;;14.40;99.90;;;;;;4961932;28;20846;-78
2022/06/07 05:35:36;;;;;;;4.10;3.80;;;14.40;99.90;;;;;;4965668;28;20486;-77
2022/06/07 05:38:26;;;;;;;4.90;4.40;;;14.40;99.90;;;;;;4966230;28;21039;-78
2022/06/07 05:41:23;;;;;;;5.47;4.97;;;14.40;99.90;;;;;;4950545;28;20540;-77
2022/06/07 05:44:14;;;;;;;4.73;4.33;;;14.40;99.90;;;;;;4961299;28;20466;-78
2022/06/07 05:47:03;;;;;;;5.20;4.70;;;14.40;99.90;;;;;;4951758;28;20476;-77
2022/06/07 05:50:09;;;;;;;5.67;5.17;;;14.40;99.90;;;;;;4937945;28;20485;-78
2022/06/07 05:52:59;;;;;;;5.23;4.73;;;14.30;99.90;;;;;;4959943;28;20465;-78
2022/06/07 05:55:47;;;;;;;5.80;5.20;;;14.30;99.90;;;;;;4964419;28;20539;-77
2022/06/07 05:58:41;;;;;;;5.80;5.27;;;14.40;99.90;;;;;;4972950;28;20499;-77
2022/06/07 06:01:29;;;;;;;7.10;6.50;;;14.40;99.90;;;;;;4968387;28;20532;-77
2022/06/07 06:04:18;;;;;;;7.23;6.60;;;14.40;99.90;;;;;;4938464;28;20615;-78
2022/06/07 06:07:06;;;;;;;7.37;6.67;;;14.40;99.90;;;;;;4966747;28;20505;-78
2022/06/07 06:13:19;;;;;;;8.77;7.87;;;14.40;99.90;;;;;;4896816;29;20481;-76
2022/06/07 06:16:11;;;;;;;7.93;7.13;;;14.40;99.90;;;;;;4894551;29;20465;-75
2022/06/07 06:19:02;;;;;;;9.00;8.10;;;14.50;99.90;;;;;;4953818;28;20512;-76
2022/06/07 06:21:54;;;;;;;8.80;8.00;;;14.50;99.90;;;;;;4968010;28;20552;-76
2022/06/07 06:24:43;;;;;;;8.70;7.90;;;14.50;99.90;;;;;;4962760;28;21018;-75
2022/06/07 06:27:34;;;;;;;9.10;8.20;;;14.50;99.90;;;;;;4961624;28;21197;-76
2022/06/07 06:30:25;;;;;;;8.87;8.07;;;14.60;99.90;;;;;;4963983;28;21001;-75
2022/06/07 06:33:18;;;;;;;9.17;8.00;;;14.60;99.90;;;;;;4961490;28;20636;-76
2022/06/07 06:36:08;;;;;;;10.50;8.37;;;14.60;99.90;;;;;;4965800;28;20503;-75
2022/06/07 06:38:57;;;;;;;9.40;8.50;;;14.60;99.90;;;;;;4966273;28;20489;-75
2022/06/07 06:41:47;;;;;;;9.27;8.37;;;14.70;99.90;;;;;;4960191;28;20462;-76
2022/06/07 06:44:35;;;;;;;9.57;8.60;;;14.70;99.90;;;;;;4959448;28;20484;-76
2022/06/07 06:47:23;;;;;;;10.00;9.10;;;14.70;99.90;;;;;;4959183;28;21048;-76
2022/06/07 06:50:13;;;;;;;9.53;8.60;;;14.80;99.90;;;;;;4958625;28;20482;-76
2022/06/07 06:53:03;;;;;;;11.57;10.37;;;14.80;99.90;;;;;;4939428;28;20513;-76
2022/06/07 06:55:52;;;;;;;11.47;9.60;;;14.80;99.90;;;;;;4954162;28;20620;-76
2022/06/07 06:58:41;;;;;;;9.77;8.87;;;14.80;99.90;;;;;;4951227;28;20608;-76
2022/06/07 07:01:31;;;;;;;10.80;9.70;;;14.80;99.90;;;;;;4959485;28;20488;-75
2022/06/07 07:04:20;;;;;;;11.07;9.97;;;14.80;99.90;;;;;;4950043;28;20482;-75
2022/06/07 07:07:10;;;;;;;10.23;9.23;;;14.80;99.90;;;;;;4949666;28;20490;-78
2022/06/07 07:09:58;;;;;;;10.47;9.37;;;14.80;99.90;;;;;;4948155;28;23787;-78
2022/06/07 07:12:47;;;;;;;9.60;8.80;;;14.80;99.90;;;;;;4948735;28;20450;-77
2022/06/07 07:15:35;;;;;;;9.50;8.40;;;14.80;99.90;;;;;;4950624;28;20548;-75
2022/06/07 07:18:24;;;;;;;11.30;10.07;;;14.90;99.90;;;;;;4953134;28;21152;-78
2022/06/07 07:21:14;;;;;;;11.13;9.87;;;14.90;99.90;;;;;;4961405;28;20472;-77
2022/06/07 07:24:05;;;;;;;11.27;9.20;;;15.00;99.90;;;;;;4947329;28;20502;-77
2022/06/07 07:26:54;;;;;;;11.57;8.70;;;15.00;99.90;;;;;;4950173;28;20572;-77
2022/06/07 07:29:46;;;;;;;10.97;9.10;;;15.10;99.90;;;;;;4959870;28;20507;-77
2022/06/07 07:32:37;;;;;;;9.87;8.87;;;15.20;99.90;;;;;;4958409;28;20929;-77
2022/06/07 07:35:26;;;;;;;11.97;8.90;;;15.20;99.90;;;;;;4961887;28;20947;-77
2022/06/07 07:38:14;;;;;;;9.80;8.90;;;15.20;99.90;;;;;;4960348;28;20860;-76
2022/06/07 07:41:04;;;;;;;8.97;8.03;;;15.20;99.90;;;;;;4959583;28;20596;-77
2022/06/07 07:43:54;;;;;;;10.03;8.90;;;15.20;99.90;;;;;;4964197;28;20568;-77
2022/06/07 07:46:44;;;;;;;8.53;7.60;;;15.30;99.90;;;;;;4953649;28;20462;-77
2022/06/07 07:49:32;;;;;;;9.50;8.37;;;15.30;99.90;;;;;;4956013;28;20981;-75
2022/06/07 07:52:21;;;;;;;8.00;7.33;;;15.40;99.90;;;;;;4964368;28;20459;-75
2022/06/07 07:55:11;;;;;;;8.20;7.53;;;15.40;99.90;;;;;;4953024;28;20484;-75
2022/06/07 07:58:00;;;;;;;8.80;7.50;;;15.50;99.90;;;;;;4957430;28;20485;-75
2022/06/07 08:00:49;;;;;;;9.00;8.20;;;15.50;99.90;;;;;;4957758;28;20455;-76
2022/06/07 08:03:41;;;;;;;8.03;7.17;;;15.50;99.90;;;;;;4965539;28;20563;-76
2022/06/07 08:06:35;;;;;;;9.40;8.10;;;15.60;99.90;;;;;;4957305;28;20560;-76
2022/06/07 08:09:26;;;;;;;8.23;7.50;;;15.60;99.90;;;;;;4957308;28;20802;-76
2022/06/07 08:12:15;;;;;;;8.57;7.87;;;15.60;99.90;;;;;;4967453;28;20921;-76
2022/06/07 08:15:09;;;;;;;7.80;7.07;;;15.70;99.90;;;;;;4956994;28;20499;-76
2022/06/07 08:18:01;;;;;;;8.37;6.90;;;15.70;99.90;;;;;;4949832;28;20496;-76
2022/06/07 08:20:51;;;;;;;7.77;6.60;;;15.70;99.90;;;;;;4950040;28;21155;-77
2022/06/07 08:23:39;;;;;;;7.97;6.43;;;15.80;99.90;;;;;;4955925;28;20587;-75
2022/06/07 08:26:30;;;;;;;7.30;6.60;;;15.80;99.90;;;;;;4950238;28;21040;-76
2022/06/07 08:29:21;;;;;;;6.80;6.20;;;15.80;99.90;;;;;;4952779;28;20489;-75
2022/06/07 08:32:13;;;;;;;6.30;5.70;;;15.90;99.90;;;;;;4940005;28;20695;-76
2022/06/07 08:38:09;;;;;;;6.50;6.00;;;15.90;99.90;;;;;;4962315;28;20486;-75
2022/06/07 08:40:58;;;;;;;7.17;6.57;;;15.90;99.90;;;;;;4962448;28;20993;-75
2022/06/07 08:43:47;;;;;;;6.57;5.97;;;16.00;99.90;;;;;;4959787;28;20979;-75
2022/06/07 08:46:38;;;;;;;7.43;6.73;;;16.00;99.90;;;;;;4942008;28;20483;-76
2022/06/07 08:49:30;;;;;;;7.70;6.90;;;16.10;99.90;;;;;;4954798;28;20916;-76
2022/06/07 08:52:23;;;;;;;7.37;6.77;;;16.20;99.90;;;;;;4944491;28;21093;-76
2022/06/07 08:55:21;;;;;;;6.93;6.30;;;16.30;99.90;;;;;;4947303;28;20455;-76
2022/06/07 08:58:17;;;;;;;6.47;5.93;;;16.40;99.90;;;;;;4940138;28;20488;-75
2022/06/07 09:01:17;;;;;;;7.13;6.53;;;16.40;99.90;;;;;;4952467;28;20457;-76
2022/06/07 09:04:15;;;;;;;7.00;6.30;;;16.50;99.90;;;;;;4943166;28;20478;-76
2022/06/07 09:07:12;;;;;;;8.30;7.50;;;16.50;99.90;;;;;;4938373;28;21626;-75
2022/06/07 09:13:15;;;;;;;7.63;7.03;;;16.60;99.90;;;;;;4953537;28;20997;-76
2022/06/07 09:16:06;;;;;;;7.70;7.07;;;16.70;99.90;;;;;;4945181;28;21282;-76
2022/06/07 09:18:54;;;;;;;7.77;7.13;;;16.80;99.90;;;;;;4942825;28;22952;-76
2022/06/07 09:21:45;;;;;;;7.20;6.60;;;16.80;99.90;;;;;;4951175;28;20595;-76
2022/06/07 09:24:40;;;;;;;7.77;7.17;;;16.80;99.90;;;;;;4952016;28;20574;-75
2022/06/07 09:27:32;;;;;;;7.27;6.67;;;16.90;99.90;;;;;;4952690;28;20545;-76
2022/06/07 09:30:26;;;;;;;7.13;6.43;;;16.90;99.90;;;;;;4954880;28;20462;-75
2022/06/07 09:33:23;;;;;;;8.50;7.80;;;17.00;99.90;;;;;;4959502;28;20921;-75
2022/06/07 09:36:19;;;;;;;9.20;6.77;;;17.00;99.90;;;;;;4954166;28;20453;-75
2022/06/07 09:39:15;;;;;;;7.80;7.10;;;17.10;99.90;;;;;;4952396;28;21564;-76
2022/06/07 09:42:19;;;;;;;6.63;5.93;;;17.20;99.90;;;;;;4957538;28;20569;-76
2022/06/07 09:45:20;;;;;;;9.27;7.73;;;17.30;99.90;;;;;;4960199;28;20530;-76
2022/06/07 09:48:27;;;;;;;10.07;7.50;;;17.40;99.90;;;;;;4956311;28;20488;-75
2022/06/07 09:51:19;;;;;;;7.07;6.47;;;17.50;99.90;;;;;;4947823;28;20482;-76
2022/06/07 09:54:21;;;;;;;8.43;7.73;;;17.60;99.90;;;;;;4965910;28;20670;-76
2022/06/07 09:57:24;;;;;;;7.20;6.60;;;17.70;99.90;;;;;;4972047;28;20510;-75
2022/06/07 10:00:20;;;;;;;6.30;5.80;;;17.70;99.90;;;;;;4953664;28;20539;-76
2022/06/07 10:03:31;;;;;;;7.10;6.43;;;17.80;99.90;;;;;;4947266;28;20473;-76
2022/06/07 10:06:27;;;;;;;6.70;6.20;;;18.00;99.90;;;;;;4953783;28;20613;-76
2022/06/07 10:09:25;;;;;;;7.90;7.30;;;18.10;99.90;;;;;;4955089;28;20493;-76
2022/06/07 10:12:28;;;;;;;8.10;7.40;;;18.20;99.90;;;;;;4949821;28;20514;-76
2022/06/07 10:15:29;;;;;;;7.00;6.40;;;18.20;99.90;;;;;;4957913;28;20485;-76
2022/06/07 10:18:32;;;;;;;5.97;5.47;;;18.20;99.90;;;;;;4953156;28;20477;-76
2022/06/07 10:21:40;;;;;;;6.70;6.10;;;18.10;99.90;;;;;;4937653;28;20457;-76
2022/06/07 10:24:39;;;;;;;7.13;6.43;;;18.10;99.90;;;;;;4955548;28;20484;-76
2022/06/07 10:27:37;;;;;;;6.50;6.10;;;18.00;99.90;;;;;;4942222;28;20641;-75
2022/06/07 10:30:32;;;;;;;7.60;6.87;;;18.00;99.90;;;;;;4943454;28;20477;-77
2022/06/07 10:33:50;;;;;;;6.30;5.80;;;18.00;99.90;;;;;;4950129;28;20560;-78
2022/06/07 10:36:47;;;;;;;6.33;5.80;;;18.00;99.90;;;;;;4956529;28;20468;-76
2022/06/07 10:39:48;;;;;;;6.87;5.70;;;18.00;99.90;;;;;;4950950;28;20571;-77
2022/06/07 10:42:47;;;;;;;6.63;6.20;;;17.90;99.90;;;;;;4953633;28;20450;-76
2022/06/07 10:45:40;;;;;;;8.30;7.70;;;17.90;99.90;;;;;;4960563;28;20453;-76
2022/06/07 10:48:34;;;;;;;9.30;7.97;;;17.80;99.90;;;;;;4950357;28;20592;-76
2022/06/07 10:54:46;;;;;;;8.00;7.23;;;17.80;99.90;;;;;;4951699;28;21268;-76
2022/06/07 10:57:47;;;;;;;7.07;6.47;;;17.80;99.90;;;;;;4958446;28;20575;-77
2022/06/07 11:00:40;;;;;;;6.87;6.37;;;17.80;99.90;;;;;;4960831;28;20519;-77
2022/06/07 11:03:44;;;;;;;7.33;6.50;;;17.80;99.90;;;;;;4954693;28;20555;-76
2022/06/07 11:09:48;;;;;;;7.67;7.03;;;17.70;99.90;;;;;;4960585;28;21098;-78
2022/06/07 11:12:48;;;;;;;10.00;8.57;;;17.70;99.90;;;;;;4965482;28;20532;-77
2022/06/07 11:15:46;;;;;;;8.87;8.07;;;17.60;99.90;;;;;;4967809;28;20463;-77
2022/06/07 11:18:34;;;;;;;9.30;8.57;;;17.60;99.90;;;;;;4958923;28;20501;-77
2022/06/07 11:21:31;;;;;;;8.10;7.50;;;17.50;99.90;;;;;;4955043;28;20450;-78
2022/06/07 11:24:26;;;;;;;8.50;7.80;;;17.50;99.90;;;;;;4956372;28;20477;-76
2022/06/07 11:27:21;;;;;;;10.07;9.17;;;17.50;99.90;;;;;;4955201;28;20616;-76
2022/06/07 11:30:28;;;;;;;10.70;9.80;;;17.30;99.90;;;;;;4958141;28;20449;-77
2022/06/07 11:33:41;;;;;;;9.37;8.50;;;17.30;99.90;;;;;;4963250;28;20541;-76
2022/06/07 11:36:34;;;;;;;10.20;9.30;;;17.20;99.90;;;;;;4963620;28;20449;-77
2022/06/07 11:39:32;;;;;;;10.87;9.90;;;17.30;99.90;;;;;;4965545;28;20481;-78
2022/06/07 11:42:33;;;;;;;10.93;9.83;;;17.20;99.90;;;;;;4961902;28;20950;-78
2022/06/07 11:45:25;;;;;;;10.80;9.90;;;17.10;99.90;;;;;;4965222;28;20535;-77
2022/06/07 11:48:21;;;;;;;11.60;10.57;;;17.00;99.90;;;;;;4964415;28;21953;-77
2022/06/07 11:51:15;;;;;;;9.70;8.80;;;17.00;99.90;;;;;;4961751;28;20470;-77
2022/06/07 11:54:08;;;;;;;11.60;10.50;;;16.90;99.90;;;;;;4957577;28;21445;-77
2022/06/07 11:57:00;;;;;;;10.90;9.90;;;16.90;99.90;;;;;;4952884;28;20467;-76
2022/06/07 11:59:50;;;;;;;11.17;10.17;;;16.90;99.90;;;;;;4971712;28;20457;-76
2022/06/07 12:03:06;;;;;;;13.07;10.70;;;16.80;99.90;;;;;;4969595;28;20648;-76
2022/06/07 12:06:05;;;;;;;10.17;9.37;;;16.90;99.90;;;;;;4959165;28;20470;-76
2022/06/07 12:09:03;;;;;;;10.87;10.00;;;16.90;99.90;;;;;;4962291;28;20497;-79
2022/06/07 12:11:52;;;;;;;11.10;10.13;;;17.00;99.90;;;;;;4958845;28;20449;-77
2022/06/07 12:14:42;;;;;;;11.23;10.33;;;17.10;99.90;;;;;;4959461;28;20474;-78
2022/06/07 12:17:31;;;;;;;10.70;9.67;;;17.10;99.90;;;;;;4961138;28;20462;-76
2022/06/07 12:20:26;;;;;;;10.83;9.83;;;17.10;99.90;;;;;;4943145;28;20511;-78
2022/06/07 12:23:24;;;;;;;10.43;9.53;;;17.10;99.90;;;;;;4964167;28;20522;-76
2022/06/07 12:26:24;;;;;;;11.20;10.10;;;17.20;99.90;;;;;;4964571;28;20465;-76
2022/06/07 12:29:21;;;;;;;11.10;10.10;;;17.20;99.90;;;;;;4946647;28;20600;-76
2022/06/07 12:32:18;;;;;;;10.53;9.43;;;17.20;99.90;;;;;;4955220;28;20454;-75
2022/06/07 12:35:16;;;;;;;10.90;10.00;;;17.20;99.90;;;;;;4961072;28;20479;-76
2022/06/07 12:38:08;;;;;;;10.53;9.73;;;17.20;99.90;;;;;;4953246;28;20516;-76
2022/06/07 12:41:02;;;;;;;9.20;8.40;;;17.20;99.90;;;;;;4967000;28;21001;-76
2022/06/07 12:43:54;;;;;;;9.30;8.60;;;17.20;99.90;;;;;;4956416;28;20470;-75
2022/06/07 12:46:46;;;;;;;10.23;9.43;;;17.20;99.90;;;;;;4958831;28;20450;-75
2022/06/07 12:49:43;;;;;;;9.40;8.60;;;17.20;99.90;;;;;;4966585;28;20540;-76
2022/06/07 12:52:33;;;;;;;10.17;9.20;;;17.20;99.90;;;;;;4962731;28;20493;-76
2022/06/07 12:55:25;;;;;;;9.87;9.07;;;17.20;99.90;;;;;;4968686;28;20457;-76
2022/06/07 12:58:19;;;;;;;10.97;9.87;;;17.20;99.90;;;;;;4957652;28;20488;-77
2022/06/07 13:01:22;;;;;;;9.40;8.60;;;17.20;99.90;;;;;;4961517;28;20950;-75
2022/06/07 13:04:18;;;;;;;9.23;8.43;;;17.20;99.90;;;;;;4964564;28;20512;-75
2022/06/07 13:07:19;;;;;;;8.97;8.20;;;17.20;99.90;;;;;;4961523;28;20558;-76
2022/06/07 13:10:29;;;;;;;10.03;9.03;;;17.10;99.90;;;;;;4964502;28;20491;-76
2022/06/07 13:13:24;;;;;;;9.30;8.50;;;17.10;99.90;;;;;;4967677;28;20498;-75
2022/06/07 13:16:38;;;;;;;9.53;8.63;;;17.10;99.90;;;;;;4959397;28;20671;-75
2022/06/07 13:19:31;;;;;;;8.90;7.90;;;17.10;99.90;;;;;;4963641;28;20484;-74
2022/06/07 13:22:30;;;;;;;8.87;8.00;;;17.20;99.90;;;;;;4967220;28;20986;-75
2022/06/07 13:25:24;;;;;;;9.07;8.33;;;17.20;99.90;;;;;;4952601;28;20557;-75
2022/06/07 13:28:18;;;;;;;9.60;8.80;;;17.30;99.90;;;;;;4953996;28;20524;-75
2022/06/07 13:34:07;;;;;;;10.00;9.00;;;17.30;99.90;;;;;;5122734;27;20570;-75
2022/06/07 13:37:21;;;;;;;9.60;8.63;;;17.30;99.90;;;;;;5062331;28;20449;-75
2022/06/07 13:40:26;;;;;;;10.13;9.13;;;17.30;99.90;;;;;;5069317;28;20591;-75
2022/06/07 13:43:19;;;;;;;10.87;9.87;;;17.40;99.90;;;;;;5071761;28;20945;-75
2022/06/07 13:46:23;;;;;;;9.60;8.80;;;17.50;99.90;;;;;;5080797;28;20524;-75
2022/06/07 13:55:47;;;;;;;9.70;8.77;;;18.00;99.90;;;;;;5081205;28;20803;-76
2022/06/07 13:58:37;;;;;;;11.23;9.80;;;18.20;99.90;;;;;;5079691;28;20479;-76
2022/06/07 14:01:29;;;;;;;9.33;8.53;;;18.20;99.90;;;;;;5076494;28;20942;-77
2022/06/07 14:04:22;;;;;;;9.67;8.87;;;18.30;99.90;;;;;;5071269;28;20471;-77
2022/06/07 14:07:13;;;;;;;9.50;8.60;;;18.20;99.90;;;;;;5074391;28;20518;-77
2022/06/07 14:10:05;;;;;;;9.80;8.80;;;18.20;99.90;;;;;;5088301;28;20501;-77
2022/06/07 14:12:54;;;;;;;9.90;9.07;;;18.10;99.90;;;;;;5076391;28;20499;-81
2022/06/07 14:15:45;;;;;;;10.63;9.73;;;18.10;99.90;;;;;;5074721;28;20453;-76
2022/06/07 14:18:33;;;;;;;11.00;9.93;;;18.10;99.90;;;;;;5077170;28;21080;-77
2022/06/07 14:21:22;;;;;;;11.50;10.40;;;18.10;99.90;;;;;;5074552;28;20966;-76
2022/06/07 14:24:15;;;;;;;11.57;10.67;;;18.20;99.90;;;;;;5080746;28;20487;-77
2022/06/07 14:27:11;;;;;;;12.23;11.23;;;18.20;99.90;;;;;;5068953;28;20456;-80
2022/06/07 14:29:59;;;;;;;12.07;11.17;;;18.30;99.90;;;;;;5075754;28;20551;-76
2022/06/07 14:32:49;;;;;;;11.60;10.60;;;18.30;99.90;;;;;;5085152;28;20558;-75
2022/06/07 14:35:38;;;;;;;10.73;9.83;;;18.30;99.90;;;;;;5071108;28;20551;-75
2022/06/07 14:38:26;;;;;;;11.20;10.17;;;18.20;99.90;;;;;;5075291;28;20480;-80
2022/06/07 14:41:16;;;;;;;10.07;9.27;;;18.10;99.90;;;;;;5081109;28;20449;-78
2022/06/07 14:44:05;;;;;;;9.03;8.33;;;18.10;99.90;;;;;;5076713;28;20483;-77
2022/06/07 14:46:56;;;;;;;8.73;8.03;;;18.00;99.90;;;;;;5060070;28;20467;-78
2022/06/07 14:49:45;;;;;;;9.80;8.87;;;17.80;99.90;;;;;;5060837;28;20462;-82
2022/06/07 14:52:34;;;;;;;8.10;7.50;;;17.80;99.90;;;;;;5057878;28;20609;-78
2022/06/07 14:55:24;;;;;;;8.70;7.90;;;17.70;99.90;;;;;;5064235;28;20520;-75
2022/06/07 14:58:13;;;;;;;9.13;8.30;;;17.70;99.90;;;;;;5073530;28;20500;-76
2022/06/07 15:01:02;;;;;;;8.50;7.80;;;17.60;99.90;;;;;;5059915;28;20688;-78
2022/06/07 15:03:52;;;;;;;7.80;7.10;;;17.50;99.90;;;;;;5064086;28;20479;-76
2022/06/07 15:06:42;;;;;;;7.73;6.67;;;17.50;99.90;;;;;;5067160;28;20453;-75
2022/06/07 15:09:31;;;;;;;7.50;6.87;;;17.50;99.90;;;;;;5069805;28;21148;-75
2022/06/07 15:12:20;;;;;;;9.00;8.10;;;17.50;99.90;;;;;;5070526;28;20472;-76
2022/06/07 15:15:11;;;;;;;8.47;7.67;;;17.50;99.90;;;;;;5058194;28;20564;-76
2022/06/07 15:18:02;;;;;;;10.80;8.80;;;17.50;99.90;;;;;;5066683;28;20493;-77
2022/06/07 15:20:53;;;;;;;8.67;7.87;;;17.40;99.90;;;;;;5067753;28;20460;-78
2022/06/07 15:23:45;;;;;;;8.53;7.70;;;17.40;99.90;;;;;;5065817;28;21151;-79
2022/06/07 15:26:34;;;;;;;10.93;8.30;;;17.50;99.90;;;;;;5064510;28;20846;-78
2022/06/07 15:32:35;;;;;;;10.77;9.03;;;17.70;99.90;;;;;;5058253;28;20553;-80